Decoded Metar for YCFS ( in ) (IATA:) | Meteo·Mobile Aviation Weather
aviador You're here:

YCFS Decoded Metar

in
Report Time2019-01-19 17:00:00
UTC Time2019-01-19 17:37:06
Flight Rules vfr VFR
Wind200° at 11 kt
W.Decomp.*RWY 21: 10.8 kt HW 1.9 kt LCW
RWY 28: 1.9 kt HW 10.8 kt LCW
W.Rank200° ranks 27
Current wind is below 200° avg. (11.2)
Visibility9999 m
Phenomena:N/A
Clouds:N/A
Expected CloudBase > 1,200 ft AGL from Temp-Dew spread
CeilingNone
Temp25°C
Dew Point22°C (83% RH)
QNH1016 hPa
Raw Report
METAR YCFS 191700Z AUTO 20011KT 9999 // NCD 25/22 Q1016
RF00.0/000.0=

Extra information for YCFS:More info

Social comments